createdAt,value
2018-11-11T00:00:22.206Z,19.10
2018-11-11T00:02:52.174Z,16.07
2018-11-11T00:05:21.454Z,14.80
2018-11-11T00:07:50.318Z,17.17
2018-11-11T00:10:19.219Z,18.07
2018-11-11T00:12:48.126Z,17.33
2018-11-11T00:15:17.966Z,19.50
2018-11-11T00:17:47.789Z,15.20
2018-11-11T00:20:16.652Z,19.03
2018-11-11T00:22:45.726Z,16.93
2018-11-11T00:25:14.578Z,17.53
2018-11-11T00:27:43.460Z,19.10
2018-11-11T00:30:17.998Z,16.97
2018-11-11T00:32:46.841Z,19.20
2018-11-11T00:35:15.713Z,20.57
2018-11-11T00:37:44.600Z,19.23
2018-11-11T00:40:14.647Z,19.63
2018-11-11T00:42:43.605Z,18.27
2018-11-11T00:45:13.545Z,22.23
2018-11-11T00:47:42.457Z,19.90
2018-11-11T00:50:12.084Z,19.97
2018-11-11T00:52:41.059Z,20.30
2018-11-11T00:55:15.413Z,17.20
2018-11-11T00:57:44.817Z,19.40
2018-11-11T01:00:15.482Z,18.07
2018-11-11T01:02:45.080Z,16.83
2018-11-11T01:05:14.469Z,21.73
2018-11-11T01:07:43.818Z,18.90
2018-11-11T01:10:14.585Z,17.43
2018-11-11T01:12:43.958Z,22.03
2018-11-11T01:15:14.196Z,21.50
2018-11-11T01:17:43.096Z,22.17
2018-11-11T01:20:13.392Z,14.97
2018-11-11T01:22:42.679Z,17.17
2018-11-11T01:25:14.048Z,17.63
2018-11-11T01:27:43.170Z,21.47
2018-11-11T01:30:12.058Z,20.83
2018-11-11T01:32:40.930Z,19.30
2018-11-11T01:35:12.050Z,16.93
2018-11-11T01:37:41.557Z,17.83
2018-11-11T01:40:10.452Z,20.53
2018-11-11T01:42:39.359Z,18.33
2018-11-11T01:45:10.997Z,19.43
2018-11-11T01:47:39.862Z,19.37
2018-11-11T01:50:09.596Z,18.67
2018-11-11T01:52:38.446Z,19.80
2018-11-11T01:55:07.516Z,21.57
2018-11-11T01:57:36.399Z,22.53
2018-11-11T02:00:06.926Z,21.53
2018-11-11T02:02:35.837Z,17.43
2018-11-11T02:05:05.190Z,20.20
2018-11-11T02:07:34.030Z,17.23
2018-11-11T02:10:03.018Z,18.47
2018-11-11T02:12:31.841Z,18.80
2018-11-11T02:15:00.705Z,19.43
2018-11-11T02:17:29.642Z,20.87
2018-11-11T02:19:58.870Z,23.00
2018-11-11T02:22:27.799Z,21.40
2018-11-11T02:24:56.707Z,19.33
2018-11-11T02:27:25.522Z,24.40
2018-11-11T02:29:54.361Z,22.07
2018-11-11T02:32:23.238Z,20.80
2018-11-11T02:34:52.091Z,22.57
2018-11-11T02:37:20.964Z,20.10
2018-11-11T02:39:49.985Z,20.90
2018-11-11T02:42:18.824Z,22.40
2018-11-11T02:44:47.701Z,21.37
2018-11-11T02:47:16.593Z,20.83
2018-11-11T02:49:45.490Z,18.67
2018-11-11T02:52:14.330Z,21.03
2018-11-11T02:54:43.241Z,23.13
2018-11-11T02:57:12.126Z,24.17
2018-11-11T02:59:40.995Z,26.53
2018-11-11T03:02:10.022Z,22.73
2018-11-11T03:04:39.242Z,22.50
2018-11-11T03:07:08.381Z,20.30
2018-11-11T03:09:37.248Z,24.83
2018-11-11T03:12:06.075Z,23.63
2018-11-11T03:14:34.993Z,24.23
2018-11-11T03:17:03.866Z,20.83
2018-11-11T03:19:32.813Z,25.20
2018-11-11T03:22:01.627Z,22.80
2018-11-11T03:24:31.236Z,30.03
2018-11-11T03:27:00.123Z,29.23
2018-11-11T03:29:29.154Z,27.83
2018-11-11T03:31:58.067Z,22.93
2018-11-11T03:34:26.974Z,29.27
2018-11-11T03:36:55.926Z,27.17
2018-11-11T03:39:24.796Z,22.60
2018-11-11T03:41:53.662Z,26.77
2018-11-11T03:44:22.522Z,26.37
2018-11-11T03:46:51.410Z,29.17
2018-11-11T03:49:20.270Z,28.43
2018-11-11T03:51:49.115Z,25.30
2018-11-11T03:54:17.999Z,30.33
2018-11-11T03:56:46.871Z,27.40
2018-11-11T03:59:15.734Z,27.87
2018-11-11T04:01:44.648Z,29.30
2018-11-11T04:04:13.618Z,32.83
2018-11-11T04:06:42.546Z,28.20
2018-11-11T04:09:12.494Z,27.10
2018-11-11T04:11:41.832Z,25.67
2018-11-11T04:14:11.323Z,28.63
2018-11-11T04:16:40.462Z,31.73
2018-11-11T04:19:10.001Z,36.77
2018-11-11T04:21:38.991Z,33.30
2018-11-11T04:24:08.453Z,24.87
2018-11-11T04:26:37.344Z,30.63
2018-11-11T04:29:06.266Z,24.53
2018-11-11T04:31:35.272Z,25.10
2018-11-11T04:34:04.180Z,29.17
2018-11-11T04:36:32.997Z,29.97
2018-11-11T04:39:01.899Z,31.80
2018-11-11T04:41:30.749Z,28.23
2018-11-11T04:43:59.630Z,29.60
2018-11-11T04:46:28.562Z,29.93
2018-11-11T04:48:57.362Z,32.37
2018-11-11T04:51:26.246Z,32.33
2018-11-11T04:53:55.128Z,34.07
2018-11-11T04:56:24.000Z,32.07
2018-11-11T04:58:52.834Z,29.83
2018-11-11T05:01:21.782Z,33.57
2018-11-11T05:03:50.670Z,28.87
2018-11-11T05:06:19.572Z,37.03
2018-11-11T05:08:48.466Z,41.37
2018-11-11T05:11:17.334Z,31.97
2018-11-11T05:13:46.560Z,32.73
2018-11-11T05:16:15.632Z,33.60
2018-11-11T05:18:44.470Z,30.20
2018-11-11T05:21:13.320Z,26.10
2018-11-11T05:23:42.254Z,29.33
2018-11-11T05:26:11.168Z,25.73
2018-11-11T05:28:40.094Z,27.67
2018-11-11T05:31:08.978Z,25.70
2018-11-11T05:33:37.799Z,35.40
2018-11-11T05:36:07.163Z,27.03
2018-11-11T05:38:36.046Z,23.50
2018-11-11T05:41:05.012Z,31.23
2018-11-11T05:43:33.839Z,24.80
2018-11-11T05:46:02.731Z,26.83
2018-11-11T05:48:31.606Z,27.23
2018-11-11T05:51:00.458Z,24.70
2018-11-11T05:53:29.368Z,22.30
2018-11-11T05:55:58.247Z,24.07
2018-11-11T05:58:27.117Z,26.30
2018-11-11T06:00:56.034Z,23.70
2018-11-11T06:03:24.895Z,31.80
2018-11-11T06:05:53.798Z,25.37
2018-11-11T06:08:22.728Z,24.03
2018-11-11T06:10:51.598Z,28.17
2018-11-11T06:13:20.449Z,25.13
2018-11-11T06:15:49.344Z,22.10
2018-11-11T06:18:18.221Z,22.87
2018-11-11T06:20:47.045Z,29.07
2018-11-11T06:23:16.042Z,22.93
2018-11-11T06:25:44.878Z,31.43
2018-11-11T06:28:13.782Z,30.57
2018-11-11T06:30:42.689Z,31.93
2018-11-11T06:33:11.524Z,28.37
2018-11-11T06:35:40.485Z,31.50
2018-11-11T06:38:09.404Z,26.13
2018-11-11T06:40:38.514Z,27.87
2018-11-11T06:43:07.357Z,28.23
2018-11-11T06:45:36.263Z,30.77
2018-11-11T06:48:05.379Z,29.93
2018-11-11T06:50:34.386Z,29.67
2018-11-11T06:53:03.260Z,30.40
2018-11-11T06:55:32.089Z,28.77
2018-11-11T06:58:00.988Z,27.33
2018-11-11T07:00:29.930Z,46.90
2018-11-11T07:03:09.936Z,31.53
2018-11-11T07:05:38.807Z,31.17
2018-11-11T07:08:08.426Z,31.17
2018-11-11T07:10:37.741Z,35.77
2018-11-11T07:13:06.868Z,27.37
2018-11-11T07:15:36.203Z,26.70
2018-11-11T07:18:07.883Z,26.47
2018-11-11T07:20:37.746Z,25.13
2018-11-11T07:23:07.533Z,31.70
2018-11-11T07:25:37.615Z,30.27
2018-11-11T07:28:06.855Z,24.77
2018-11-11T07:30:37.322Z,23.33
2018-11-11T07:33:06.566Z,24.83
2018-11-11T07:35:35.682Z,33.27
2018-11-11T07:38:05.127Z,26.83
2018-11-11T07:40:35.598Z,32.90
2018-11-11T07:43:05.153Z,32.53
2018-11-11T07:45:34.459Z,30.60
2018-11-11T07:48:03.431Z,27.17
2018-11-11T07:50:32.256Z,29.00
2018-11-11T07:53:01.134Z,26.57
2018-11-11T07:55:30.004Z,31.33
2018-11-11T07:57:58.907Z,29.03
2018-11-11T08:00:27.775Z,25.17
2018-11-11T08:02:56.681Z,32.00
2018-11-11T08:05:25.702Z,23.90
2018-11-11T08:07:54.616Z,27.03
2018-11-11T08:10:34.639Z,23.17
2018-11-11T08:13:03.694Z,39.13
2018-11-11T08:15:32.574Z,29.40
2018-11-11T08:18:01.531Z,63.90
2018-11-11T08:20:30.422Z,31.60
2018-11-11T08:22:59.394Z,30.47
2018-11-11T08:25:28.296Z,39.37
2018-11-11T08:27:57.498Z,28.03
2018-11-11T08:30:26.350Z,29.07
2018-11-11T08:32:55.205Z,35.37
2018-11-11T08:35:24.085Z,33.27
2018-11-11T08:37:52.995Z,34.87
2018-11-11T08:40:21.944Z,47.93
2018-11-11T08:42:50.816Z,60.77
2018-11-11T08:45:20.221Z,53.53
2018-11-11T08:47:49.218Z,61.73
2018-11-11T08:50:18.085Z,69.10
2018-11-11T08:52:47.395Z,66.57
2018-11-11T08:55:16.276Z,72.93
2018-11-11T08:57:45.244Z,65.10
2018-11-11T09:00:15.097Z,71.57
2018-11-11T09:02:44.046Z,70.07
2018-11-11T09:05:12.937Z,73.67
2018-11-11T09:07:41.833Z,66.43
2018-11-11T09:10:12.116Z,62.13
2018-11-11T09:12:41.061Z,64.73
2018-11-11T09:15:12.438Z,67.67
2018-11-11T09:17:41.716Z,64.97
